Terminal Aerodrome Forecast
Issued by NWS

Home | Current Version | Previous Version | Graphics & Text | Print | Product List | Glossary On
Versions: 1 2 3 4 5 6 7 8 9 10 11 12 13 14 15 16 17 18 19 20 21 22 23 24 25
000
FTUS43 KABR 181600 AAD
TAFPIR
TAF AMD
KPIR 181650Z 1817/1912 13006KT 6SM BR BKN007 OVC015
     FM182100 14006KT P6SM OVC015
     FM190800 VRB04KT P6SM BKN250=

USA.gov is the U.S. government's official web portal to all federal, state and local government web resources and services.